Time;durP1;ratioP1;P1;durP2;ratioP2;P2;SDS_P1;SDS_P2;PMS_P1;PMS_P2;Temp;Humidity;BMP_temperature;BMP_pressure;BME280_temperature;BME280_humidity;BME280_pressure;Samples;Min_cycle;Max_cycle;Signal;HPM_P1;HPM_P2
2023/10/17 00:01:48;;;;;;;5.90;3.70;;;;;;;4.49;69.96;101863.55;107614;1252;97957;-63
2023/10/17 00:06:46;;;;;;;12.80;4.10;;;;;;;4.57;69.99;101854.67;107533;1252;112031;-62
2023/10/17 00:09:22;;;;;;;7.40;4.90;;;;;;;4.60;69.88;101861.13;107611;1254;110011;-63
2023/10/17 00:14:27;;;;;;;9.50;3.90;;;;;;;4.62;70.16;101857.65;107474;1256;97959;-63
2023/10/17 00:16:56;;;;;;;12.40;3.90;;;;;;;4.65;70.11;101861.06;107571;1253;97763;-62
2023/10/17 00:19:31;;;;;;;11.50;5.00;;;;;;;4.69;70.23;101860.31;107617;1253;110944;-64
2023/10/17 00:22:03;;;;;;;12.00;4.50;;;;;;;4.72;70.20;101860.37;107584;1253;108764;-62
2023/10/17 00:24:31;;;;;;;12.10;4.60;;;;;;;4.77;70.51;101861.41;107570;1251;108536;-62
2023/10/17 00:27:02;;;;;;;8.30;4.20;;;;;;;4.79;70.28;101859.19;107603;1253;97795;-61
2023/10/17 00:29:33;;;;;;;7.80;4.10;;;;;;;4.72;71.08;101855.22;107636;1253;97826;-62
2023/10/17 00:32:01;;;;;;;7.90;3.90;;;;;;;4.65;70.70;101854.84;107576;1253;111722;-62
2023/10/17 00:34:30;;;;;;;11.60;4.70;;;;;;;4.65;70.70;101849.67;107497;1253;110849;-62
2023/10/17 00:37:11;;;;;;;10.10;4.70;;;;;;;4.68;70.44;101850.63;107589;1253;108986;-63
2023/10/17 00:39:39;;;;;;;7.10;3.90;;;;;;;4.68;70.59;101856.27;107485;1253;97864;-62
2023/10/17 00:44:41;;;;;;;13.70;5.10;;;;;;;4.69;70.17;101858.02;107565;1253;111490;-62
2023/10/17 00:47:11;;;;;;;9.40;4.10;;;;;;;4.67;69.96;101854.90;107485;1251;109408;-62
2023/10/17 00:49:42;;;;;;;9.60;5.20;;;;;;;4.64;70.40;101859.52;107593;1253;108619;-63
2023/10/17 00:52:23;;;;;;;10.50;5.30;;;;;;;4.59;70.63;101859.58;107659;1251;97844;-63
2023/10/17 00:54:57;;;;;;;11.60;5.30;;;;;;;4.55;70.94;101861.86;107678;1251;97831;-63
2023/10/17 00:57:26;;;;;;;14.90;5.60;;;;;;;4.51;70.63;101859.90;107478;1252;110970;-62
2023/10/17 00:59:57;;;;;;;13.20;5.90;;;;;;;4.48;70.38;101860.91;107671;1251;110540;-63
2023/10/17 01:02:29;;;;;;;15.00;5.10;;;;;;;4.47;70.23;101863.86;107637;1253;108740;-61
2023/10/17 01:04:59;;;;;;;14.80;6.10;;;;;;;4.45;70.04;101862.30;107595;1253;97822;-62
2023/10/17 01:07:34;;;;;;;10.90;4.90;;;;;;;4.43;70.15;101859.91;107684;1251;98358;-63
2023/10/17 01:10:10;;;;;;;16.30;5.30;;;;;;;4.39;70.37;101857.27;107643;1253;111906;-64
2023/10/17 01:15:29;;;;;;;16.60;5.30;;;;;;;4.29;70.10;101865.14;107596;1253;107254;-63
2023/10/17 01:18:03;;;;;;;11.50;5.20;;;;;;;4.25;69.94;101865.34;107604;1253;97919;-62
2023/10/17 01:20:34;;;;;;;7.60;5.00;;;;;;;4.18;69.73;101865.98;107641;1253;98474;-63
2023/10/17 01:23:04;;;;;;;7.40;4.40;;;;;;;4.14;69.88;101864.05;107579;1253;110758;-62
2023/10/17 01:25:40;;;;;;;8.40;4.80;;;;;;;4.11;69.87;101864.38;107581;1253;108524;-63
2023/10/17 01:28:10;;;;;;;11.00;5.00;;;;;;;4.08;70.09;101868.74;107548;1252;107366;-63
2023/10/17 01:30:41;;;;;;;6.60;4.40;;;;;;;4.04;70.32;101870.33;107566;1253;97809;-63
2023/10/17 01:33:12;;;;;;;9.60;5.10;;;;;;;4.02;70.31;101875.77;107670;1252;99117;-63
2023/10/17 01:35:44;;;;;;;20.90;6.20;;;;;;;4.01;70.48;101873.65;107603;1252;112563;-62
2023/10/17 01:38:13;;;;;;;11.30;5.20;;;;;;;4.02;70.81;101877.30;107701;1253;110013;-63
2023/10/17 01:40:41;;;;;;;9.60;5.20;;;;;;;4.04;70.92;101875.99;107641;1253;108159;-64
2023/10/17 01:43:10;;;;;;;14.20;4.80;;;;;;;4.05;71.02;101875.98;107516;1251;97823;-64
2023/10/17 01:45:42;;;;;;;27.40;5.60;;;;;;;4.04;71.20;101875.13;107439;1257;97818;-62
2023/10/17 01:48:13;;;;;;;16.10;5.40;;;;;;;4.01;71.20;101878.45;107404;1251;112472;-61
2023/10/17 01:50:44;;;;;;;14.60;4.70;;;;;;;4.01;71.30;101875.23;107628;1253;110239;-62
2023/10/17 01:53:13;;;;;;;11.60;4.60;;;;;;;4.00;71.03;101873.85;107626;1251;106915;-62
2023/10/17 01:55:52;;;;;;;12.60;5.00;;;;;;;3.99;71.24;101876.06;107481;1253;97851;-63
2023/10/17 01:58:22;;;;;;;10.20;5.10;;;;;;;3.96;70.86;101875.81;107604;1253;97925;-63
2023/10/17 02:00:54;;;;;;;10.70;4.50;;;;;;;3.95;70.80;101875.86;107374;1253;112214;-62
2023/10/17 02:03:23;;;;;;;14.20;5.50;;;;;;;3.96;71.10;101876.90;107580;1253;109381;-62
2023/10/17 02:05:52;;;;;;;9.70;4.60;;;;;;;3.96;71.19;101879.19;107596;1253;108133;-62
2023/10/17 02:08:22;;;;;;;12.70;5.10;;;;;;;3.95;70.83;101878.02;107464;1251;97848;-62
2023/10/17 02:10:51;;;;;;;9.50;4.50;;;;;;;3.92;70.93;101873.34;107595;1253;97732;-62
2023/10/17 02:13:21;;;;;;;15.20;5.30;;;;;;;3.92;70.99;101870.50;107476;1253;111049;-62
2023/10/17 02:15:50;;;;;;;11.90;5.00;;;;;;;3.90;71.01;101866.11;107625;1253;109574;-62
2023/10/17 02:18:19;;;;;;;13.00;5.30;;;;;;;3.88;71.04;101866.05;107539;1253;107868;-63
2023/10/17 02:20:51;;;;;;;13.00;5.10;;;;;;;3.85;70.88;101870.60;107586;1255;97810;-61
2023/10/17 02:23:20;;;;;;;12.30;5.60;;;;;;;3.82;70.81;101869.50;107581;1252;97919;-63
2023/10/17 02:25:50;;;;;;;14.10;5.40;;;;;;;3.80;70.82;101872.25;107635;1252;110878;-62
2023/10/17 02:28:18;;;;;;;9.20;4.90;;;;;;;3.76;70.91;101866.37;107553;1251;111628;-61
2023/10/17 02:30:47;;;;;;;12.70;5.20;;;;;;;3.73;70.81;101869.71;107611;1253;108809;-62
2023/10/17 02:33:20;;;;;;;13.80;4.90;;;;;;;3.69;71.20;101871.46;107585;1253;97829;-61
2023/10/17 02:38:46;;;;;;;11.90;4.50;;;;;;;3.66;71.09;101867.15;107649;1251;111828;-62
2023/10/17 02:41:28;;;;;;;10.90;5.10;;;;;;;3.63;71.02;101872.06;107589;1254;108980;-63
2023/10/17 02:43:57;;;;;;;9.90;4.50;;;;;;;3.63;71.12;101874.02;107532;1253;107828;-62
2023/10/17 02:46:28;;;;;;;11.90;4.70;;;;;;;3.64;71.11;101869.54;107584;1251;98010;-61
2023/10/17 02:48:57;;;;;;;13.40;4.90;;;;;;;3.63;71.16;101868.33;107595;1253;97853;-62
2023/10/17 02:53:56;;;;;;;11.10;5.80;;;;;;;3.56;71.15;101875.73;107605;1251;109693;-63
2023/10/17 02:56:26;;;;;;;14.60;5.10;;;;;;;3.54;71.14;101881.48;107514;1252;108758;-62
2023/10/17 02:59:04;;;;;;;11.20;4.70;;;;;;;3.55;71.54;101883.38;107506;1251;97732;-67
2023/10/17 03:01:36;;;;;;;17.20;5.30;;;;;;;3.55;71.45;101885.16;107510;1251;97877;-62
2023/10/17 03:04:12;;;;;;;12.60;4.50;;;;;;;3.51;71.44;101886.37;107606;1253;110738;-62
2023/10/17 03:06:46;;;;;;;14.20;4.80;;;;;;;3.51;71.47;101889.58;107567;1251;109969;-62
2023/10/17 03:09:16;;;;;;;7.80;4.60;;;;;;;3.48;71.43;101890.77;107589;1252;106672;-62
2023/10/17 03:12:07;;;;;;;16.40;5.10;;;;;;;3.39;71.31;101893.79;107621;1251;97822;-62
2023/10/17 03:17:15;;;;;;;10.60;4.80;;;;;;;3.25;71.36;101900.89;107604;1251;111164;-64
2023/10/17 03:19:44;;;;;;;10.60;5.50;;;;;;;3.21;71.17;101898.95;107618;1251;109460;-63
2023/10/17 03:22:24;;;;;;;13.80;5.50;;;;;;;3.18;71.14;101903.14;107591;1253;108512;-62
2023/10/17 03:25:02;;;;;;;11.60;5.70;;;;;;;3.12;70.89;101899.83;107324;1253;97857;-62
2023/10/17 03:27:36;;;;;;;12.50;5.30;;;;;;;3.05;70.97;101899.56;107467;1253;97772;-61
2023/10/17 03:30:11;;;;;;;11.20;5.10;;;;;;;3.01;70.93;101898.32;107525;1251;110958;-61
2023/10/17 03:32:52;;;;;;;14.10;5.60;;;;;;;2.94;71.11;101899.09;107616;1253;109276;-62
2023/10/17 03:35:25;;;;;;;19.10;6.40;;;;;;;2.89;71.25;101895.05;107465;1253;107861;-63
2023/10/17 03:37:56;;;;;;;17.60;5.70;;;;;;;2.83;71.10;101893.84;107475;1253;97891;-63
2023/10/17 03:43:29;;;;;;;13.80;6.10;;;;;;;2.73;71.25;101895.45;107266;1251;112107;-63
2023/10/17 03:46:04;;;;;;;16.60;7.00;;;;;;;2.71;71.31;101896.06;107581;1253;110138;-63
2023/10/17 03:48:36;;;;;;;12.50;5.70;;;;;;;2.69;71.31;101896.14;107565;1253;107923;-62
2023/10/17 03:53:47;;;;;;;19.80;6.10;;;;;;;2.64;71.23;101898.60;107632;1255;97861;-61
2023/10/17 03:56:24;;;;;;;20.00;5.90;;;;;;;2.62;71.55;101895.34;107552;1253;110110;-60
2023/10/17 04:01:47;;;;;;;18.60;7.10;;;;;;;2.59;71.55;101898.65;107293;1252;108085;-61
2023/10/17 04:04:28;;;;;;;14.20;6.10;;;;;;;2.59;71.70;101900.05;107493;1252;97840;-63
2023/10/17 04:07:01;;;;;;;13.60;6.00;;;;;;;2.58;72.32;101908.23;107606;1252;98410;-62
2023/10/17 04:09:32;;;;;;;23.60;6.80;;;;;;;2.55;72.23;101918.25;107609;1251;110388;-62
2023/10/17 04:12:06;;;;;;;27.40;6.90;;;;;;;2.54;72.12;101921.50;107604;1251;109816;-62
2023/10/17 04:14:43;;;;;;;;;;;;;;;2.55;72.33;101918.60;107626;1255;107836;-62
2023/10/17 04:17:15;;;;;;;23.10;6.40;;;;;;;2.59;72.58;101914.05;107514;1253;97762;-63
2023/10/17 04:19:43;;;;;;;28.40;6.40;;;;;;;2.63;72.69;101911.95;107607;1251;98695;-63
2023/10/17 04:22:15;;;;;;;27.00;6.10;;;;;;;2.68;72.76;101918.15;107542;1251;111687;-62
2023/10/17 04:24:49;;;;;;;21.40;7.50;;;;;;;2.73;72.75;101923.46;107545;1252;108559;-63
2023/10/17 04:27:23;;;;;;;20.40;5.50;;;;;;;2.77;72.71;101928.27;107556;1252;107325;-62
2023/10/17 04:29:51;;;;;;;22.50;6.40;;;;;;;2.82;72.81;101936.05;107592;1252;97929;-61
2023/10/17 04:32:20;;;;;;;25.80;6.90;;;;;;;2.85;72.73;101930.45;107626;1251;97897;-64
2023/10/17 04:34:49;;;;;;;15.00;5.70;;;;;;;2.87;72.49;101931.09;107574;1253;111163;-62
2023/10/17 04:37:17;;;;;;;20.80;6.10;;;;;;;2.87;72.36;101933.91;107592;1255;108857;-61
2023/10/17 04:39:49;;;;;;;13.80;6.00;;;;;;;2.88;72.43;101932.11;107592;1253;107387;-62
2023/10/17 04:45:13;;;;;;;15.40;6.50;;;;;;;2.92;72.43;101940.63;107592;1253;98381;-60
2023/10/17 04:47:45;;;;;;;18.30;6.00;;;;;;;2.94;72.33;101947.13;107560;1253;111950;-62
2023/10/17 04:50:16;;;;;;;24.60;6.90;;;;;;;2.94;72.44;101948.89;107551;1253;109921;-62
2023/10/17 04:52:46;;;;;;;23.50;6.70;;;;;;;2.94;72.38;101951.72;107630;1251;108513;-63
2023/10/17 04:55:18;;;;;;;18.90;6.20;;;;;;;2.97;72.49;101954.43;107542;1253;97838;-64
2023/10/17 05:03:14;;;;;;;15.60;5.70;;;;;;;3.09;72.52;101964.97;107404;1251;109197;-62
2023/10/17 05:08:33;;;;;;;38.40;10.70;;;;;;;3.23;72.58;101974.92;107551;1253;97835;-62
2023/10/17 06:17:53;;;;;;;17.40;6.40;;;;;;;5.37;69.43;102023.10;107546;1254;97835;-61
2023/10/17 06:21:06;;;;;;;24.90;6.50;;;;;;;5.50;69.53;102025.34;107565;1252;97735;-62
2023/10/17 06:24:05;;;;;;;30.30;15.10;;;;;;;5.58;68.71;102024.45;107636;1253;111929;-62
2023/10/17 06:34:17;;;;;;;20.90;7.50;;;;;;;5.84;67.87;102024.08;107613;1253;97714;-63
2023/10/17 06:36:55;;;;;;;15.20;6.50;;;;;;;5.94;67.91;102025.72;107607;1253;110584;-61
2023/10/17 06:39:25;;;;;;;14.00;6.00;;;;;;;6.03;67.50;102028.71;107525;1252;110161;-62
2023/10/17 06:42:13;;;;;;;19.70;5.30;;;;;;;6.11;67.40;102030.83;107633;1253;107658;-62
2023/10/17 06:44:53;;;;;;;18.70;5.70;;;;;;;6.23;67.12;102029.85;107510;1254;98071;-62
2023/10/17 06:47:31;;;;;;;14.20;5.70;;;;;;;6.35;66.74;102026.25;107558;1251;98338;-63
2023/10/17 06:55:28;;;;;;;18.40;5.70;;;;;;;6.75;66.75;102018.86;107562;1255;108248;-62
2023/10/17 06:58:08;;;;;;;22.80;8.40;;;;;;;6.83;65.40;102020.58;107559;1253;97908;-62
2023/10/17 07:00:49;;;;;;;24.40;7.00;;;;;;;6.87;65.20;102020.92;107608;1252;97848;-62
2023/10/17 07:03:26;;;;;;;18.20;5.10;;;;;;;6.98;65.53;102021.91;107568;1251;112293;-62
2023/10/17 07:06:11;;;;;;;19.00;6.00;;;;;;;7.08;65.14;102026.91;107552;1253;109223;-62
2023/10/17 07:08:42;;;;;;;12.60;5.60;;;;;;;7.15;64.83;102027.08;107534;1252;107688;-62
2023/10/17 07:11:35;;;;;;;17.20;5.90;;;;;;;7.25;65.03;102027.11;107552;1252;97798;-62
2023/10/17 07:24:36;;;;;;;22.30;6.50;;;;;;;7.71;62.85;102029.39;107504;1251;97811;-62
2023/10/17 07:27:22;;;;;;;17.50;7.70;;;;;;;7.82;62.88;102031.93;107603;1253;98367;-62
2023/10/17 07:30:03;;;;;;;20.20;6.10;;;;;;;7.94;62.96;102038.46;107568;1253;112008;-62
2023/10/17 07:32:44;;;;;;;16.00;7.50;;;;;;;8.05;62.96;102033.67;107616;1252;110143;-62
2023/10/17 07:35:24;;;;;;;13.30;5.10;;;;;;;8.18;62.78;102031.02;107532;1252;108652;-62
2023/10/17 07:37:54;;;;;;;13.90;6.00;;;;;;;8.33;62.83;102029.59;107657;1253;97839;-61
2023/10/17 07:43:07;;;;;;;16.40;4.50;;;;;;;8.61;61.47;102024.59;107549;1253;111934;-61
2023/10/17 07:45:39;;;;;;;13.50;4.10;;;;;;;8.74;58.27;102027.52;107547;1253;109298;-62
2023/10/17 07:48:20;;;;;;;16.10;6.00;;;;;;;8.84;58.44;102026.95;107604;1252;106501;-62
2023/10/17 07:50:50;;;;;;;18.70;5.00;;;;;;;8.99;58.62;102024.96;107624;1252;97864;-61
2023/10/17 07:53:19;;;;;;;17.30;6.20;;;;;;;9.14;58.64;102027.80;107528;1252;97714;-61
2023/10/17 07:55:52;;;;;;;14.30;4.80;;;;;;;9.28;57.45;102029.77;107592;1251;110803;-63
2023/10/17 07:58:38;;;;;;;8.10;3.70;;;;;;;9.43;55.40;102030.45;107585;1251;108097;-61
2023/10/17 08:01:07;;;;;;;10.80;3.60;;;;;;;9.48;53.40;102035.30;107594;1253;107170;-62
2023/10/17 08:03:40;;;;;;;12.40;3.50;;;;;;;9.59;53.36;102033.20;107514;1253;97851;-63
2023/10/17 08:06:12;;;;;;;17.30;3.90;;;;;;;9.68;51.69;102032.30;107540;1256;97709;-62
2023/10/17 08:08:42;;;;;;;11.80;3.40;;;;;;;9.82;52.62;102033.49;107565;1253;111903;-62
2023/10/17 08:14:09;;;;;;;12.00;3.50;;;;;;;10.03;51.24;102033.23;107531;1253;107014;-62
2023/10/17 08:16:42;;;;;;;7.10;3.60;;;;;;;10.15;50.84;102034.92;107521;1252;97813;-62
2023/10/17 08:19:22;;;;;;;8.00;3.30;;;;;;;10.27;50.12;102033.08;107567;1253;97894;-62
2023/10/17 08:24:57;;;;;;;8.70;3.00;;;;;;;10.61;50.48;102034.92;107570;1251;109252;-62
2023/10/17 08:32:39;;;;;;;7.30;3.00;;;;;;;11.24;49.66;102031.30;107520;1253;97824;-62
2023/10/17 08:35:19;;;;;;;6.00;2.80;;;;;;;11.35;48.72;102029.77;107576;1252;110566;-63
2023/10/17 08:37:49;;;;;;;8.40;2.80;;;;;;;11.55;48.89;102025.33;107530;1253;109238;-61
2023/10/17 08:40:32;;;;;;;8.50;3.30;;;;;;;11.77;49.07;102023.69;107539;1252;108061;-62
2023/10/17 08:43:12;;;;;;;7.00;3.00;;;;;;;12.01;48.61;102028.41;107555;1252;97825;-61
2023/10/17 08:45:41;;;;;;;13.60;2.80;;;;;;;12.28;48.62;102025.85;107518;1252;97828;-62
2023/10/17 08:48:09;;;;;;;10.10;2.80;;;;;;;12.55;48.57;102018.98;107615;1253;112634;-62
2023/10/17 08:50:43;;;;;;;11.30;2.90;;;;;;;12.76;47.60;102019.52;107550;1253;109928;-62
2023/10/17 08:55:48;;;;;;;12.80;2.70;;;;;;;13.11;47.19;102015.34;107497;1252;97931;-63
2023/10/17 08:58:36;;;;;;;9.00;2.40;;;;;;;13.36;46.30;102018.40;107561;1253;97809;-61
2023/10/17 09:01:10;;;;;;;8.50;2.30;;;;;;;13.76;45.71;102015.33;107563;1253;110713;-62
2023/10/17 09:03:43;;;;;;;9.40;3.10;;;;;;;14.19;45.38;102017.80;107561;1253;109725;-63
2023/10/17 09:11:29;;;;;;;6.90;3.40;;;;;;;15.18;43.73;102007.36;107583;1255;97836;-62
2023/10/17 09:16:51;;;;;;;13.80;3.50;;;;;;;15.87;42.65;101998.34;107560;1253;109052;-62
2023/10/17 09:19:21;;;;;;;4.40;2.50;;;;;;;16.16;40.79;101996.77;107566;1253;107423;-63
2023/10/17 09:21:50;;;;;;;12.30;2.60;;;;;;;16.30;40.98;101990.16;107517;1255;97846;-62
2023/10/17 09:24:35;;;;;;;10.10;2.80;;;;;;;16.44;40.62;101987.95;107554;1252;97723;-63
2023/10/17 09:27:14;;;;;;;11.00;3.00;;;;;;;16.63;40.49;101983.48;107582;1255;111247;-62
2023/10/17 09:29:47;;;;;;;6.90;2.70;;;;;;;16.94;40.15;101978.14;107564;1253;110592;-61
2023/10/17 09:32:55;;;;;;;8.50;3.20;;;;;;;17.25;39.36;101979.38;107569;1251;106873;-62
2023/10/17 09:35:23;;;;;;;10.90;3.30;;;;;;;17.57;37.85;101978.76;106997;1258;97992;-63
2023/10/17 09:37:52;;;;;;;15.10;5.50;;;;;;;17.69;38.25;101976.27;107021;1259;98148;-61
2023/10/17 09:40:29;;;;;;;10.40;3.30;;;;;;;17.90;37.66;101974.42;107060;1258;110710;-62
2023/10/17 09:43:00;;;;;;;9.70;3.10;;;;;;;18.21;37.80;101968.05;106976;1259;109568;-61
2023/10/17 09:45:33;;;;;;;10.00;3.80;;;;;;;18.51;36.81;101966.95;107026;1261;108336;-63
2023/10/17 09:48:05;;;;;;;13.90;3.50;;;;;;;18.61;35.65;101965.43;106973;1260;97960;-62
2023/10/17 09:50:37;;;;;;;10.00;3.10;;;;;;;18.84;36.47;101961.83;107003;1259;97843;-63
2023/10/17 09:53:14;;;;;;;7.30;3.20;;;;;;;19.20;37.38;101958.72;107012;1259;110816;-61
2023/10/17 09:55:50;;;;;;;6.80;2.30;;;;;;;19.51;35.51;101950.67;107000;1259;110110;-61
2023/10/17 09:58:27;;;;;;;5.10;2.60;;;;;;;19.74;36.11;101944.52;106987;1259;107293;-61
2023/10/17 10:01:06;;;;;;;7.80;3.20;;;;;;;19.97;34.07;101945.45;106987;1259;97970;-61
2023/10/17 10:03:37;;;;;;;9.50;3.00;;;;;;;19.95;33.43;101938.13;106994;1261;97741;-62
2023/10/17 10:06:22;;;;;;;8.90;3.00;;;;;;;20.04;34.29;101936.23;107123;1252;110826;-61
2023/10/17 10:08:55;;;;;;;3.90;2.20;;;;;;;20.33;33.77;101933.56;107518;1253;109918;-62
2023/10/17 10:11:42;;;;;;;;;;;;;;;20.47;31.93;101931.51;107223;1253;440130;-63
2023/10/17 10:14:11;;;;;;;5.30;2.60;;;;;;;20.46;32.97;101926.02;107509;1253;97942;-62
2023/10/17 10:16:57;;;;;;;9.10;2.70;;;;;;;20.80;33.59;101921.27;107533;1253;97825;-62
2023/10/17 10:19:41;;;;;;;8.70;3.10;;;;;;;21.15;32.86;101916.45;107565;1255;111150;-62
2023/10/17 10:22:14;;;;;;;16.00;2.90;;;;;;;21.20;32.50;101911.77;107545;1253;111518;-62
2023/10/17 10:24:45;;;;;;;12.30;4.60;;;;;;;21.20;31.87;101913.63;107504;1252;108223;-62
2023/10/17 10:27:24;;;;;;;7.10;2.60;;;;;;;21.04;31.21;101911.89;107524;1253;97834;-62
2023/10/17 10:30:43;;;;;;;5.50;2.40;;;;;;;20.85;31.04;101910.05;107538;1253;98363;-61
2023/10/17 10:33:13;;;;;;;4.90;2.40;;;;;;;20.75;31.41;101909.48;107553;1252;111093;-62
2023/10/17 10:35:45;;;;;;;8.50;2.60;;;;;;;20.72;31.77;101906.03;107577;1253;110078;-62
2023/10/17 10:38:13;;;;;;;4.50;2.40;;;;;;;20.63;30.94;101907.73;107542;1252;107131;-62
2023/10/17 10:40:42;;;;;;;8.50;2.70;;;;;;;20.44;30.95;101904.09;107521;1253;97877;-62
2023/10/17 10:43:18;;;;;;;9.50;2.60;;;;;;;20.40;31.63;101901.44;107518;1253;97856;-63
2023/10/17 10:45:50;;;;;;;11.10;2.90;;;;;;;20.41;31.36;101896.34;107554;1252;110895;-62
2023/10/17 10:48:21;;;;;;;6.60;2.50;;;;;;;20.41;31.32;101896.50;107579;1255;108885;-61
2023/10/17 10:50:55;;;;;;;8.60;2.90;;;;;;;20.48;31.95;101891.34;107427;1252;108511;-62
2023/10/17 10:53:29;;;;;;;6.30;2.90;;;;;;;20.54;31.68;101887.94;107553;1252;97885;-62
2023/10/17 10:56:02;;;;;;;23.10;4.00;;;;;;;20.53;31.58;101885.89;107605;1253;97757;-62
2023/10/17 10:58:34;;;;;;;6.40;3.00;;;;;;;20.54;31.49;101884.94;107562;1253;112582;-62
2023/10/17 11:01:07;;;;;;;7.00;2.80;;;;;;;20.55;31.33;101882.44;107525;1253;108833;-63
2023/10/17 11:03:44;;;;;;;8.70;3.00;;;;;;;20.37;30.24;101882.92;107580;1254;106946;-63
2023/10/17 11:06:14;;;;;;;9.30;2.50;;;;;;;20.09;31.48;101884.64;107571;1253;97842;-62
2023/10/17 11:08:45;;;;;;;5.50;2.40;;;;;;;19.95;30.92;101879.81;107574;1252;97958;-62
2023/10/17 11:11:17;;;;;;;11.30;2.30;;;;;;;19.68;31.29;101878.20;107534;1253;110694;-62
2023/10/17 11:13:47;;;;;;;7.50;2.50;;;;;;;19.54;31.68;101880.41;107558;1253;107706;-62
2023/10/17 11:16:17;;;;;;;7.50;3.00;;;;;;;19.42;31.66;101879.02;107601;1253;107341;-63
2023/10/17 11:18:46;;;;;;;5.10;2.30;;;;;;;19.26;31.62;101876.33;107564;1253;97731;-62
2023/10/17 11:21:20;;;;;;;5.40;2.60;;;;;;;18.95;31.24;101874.80;107598;1253;97807;-62
2023/10/17 11:23:52;;;;;;;8.40;2.50;;;;;;;18.58;31.80;101875.53;107546;1251;110537;-61
2023/10/17 11:26:25;;;;;;;7.30;2.40;;;;;;;18.23;32.16;101875.18;107584;1252;108895;-62
2023/10/17 11:28:58;;;;;;;9.40;2.90;;;;;;;18.08;33.05;101872.98;107465;1251;107817;-62
2023/10/17 11:31:27;;;;;;;7.60;2.40;;;;;;;18.00;33.15;101872.13;107541;1253;97726;-62
2023/10/17 11:34:15;;;;;;;4.80;2.30;;;;;;;17.89;33.08;101868.68;107574;1251;97734;-62
2023/10/17 11:36:49;;;;;;;4.80;2.40;;;;;;;17.89;33.42;101864.73;107562;1254;111933;-63
2023/10/17 11:39:18;;;;;;;10.80;2.10;;;;;;;17.97;33.54;101865.70;107576;1255;110060;-63
2023/10/17 11:41:55;;;;;;;7.20;2.90;;;;;;;18.02;33.53;101866.16;107541;1253;107021;-61
2023/10/17 11:44:27;;;;;;;8.20;2.50;;;;;;;17.96;33.23;101868.89;107549;1253;97852;-62
2023/10/17 11:47:03;;;;;;;7.30;2.70;;;;;;;17.83;33.63;101866.55;107566;1253;97831;-62
2023/10/17 11:49:41;;;;;;;7.80;2.40;;;;;;;17.74;33.73;101862.39;107584;1255;112409;-62
2023/10/17 11:52:12;;;;;;;7.90;2.80;;;;;;;17.61;33.53;101861.70;107573;1253;108642;-61
2023/10/17 11:55:11;;;;;;;5.50;2.70;;;;;;;17.42;33.68;101864.24;107547;1253;107126;-62
2023/10/17 11:57:50;;;;;;;8.00;3.20;;;;;;;17.26;34.01;101862.17;107596;1252;97939;-63
2023/10/17 12:02:48;;;;;;;15.70;3.30;;;;;;;16.93;34.52;101859.44;107628;1251;112131;-62
2023/10/17 12:05:18;;;;;;;7.00;3.00;;;;;;;16.92;35.19;101860.03;107579;1254;110046;-62
2023/10/17 12:07:53;;;;;;;4.70;2.40;;;;;;;16.89;34.91;101857.19;107583;1251;108777;-63
2023/10/17 12:10:28;;;;;;;13.30;3.20;;;;;;;16.86;35.01;101853.17;107546;1255;97831;-61
2023/10/17 12:13:06;;;;;;;8.10;3.00;;;;;;;16.87;35.23;101859.98;107557;1251;98488;-62
2023/10/17 12:15:34;;;;;;;8.70;3.00;;;;;;;16.85;34.68;101862.30;107554;1254;111603;-62
2023/10/17 12:18:04;;;;;;;15.70;4.00;;;;;;;16.78;34.84;101859.96;107599;1255;109890;-62
2023/10/17 12:20:32;;;;;;;7.40;3.10;;;;;;;16.71;35.42;101856.59;107567;1256;108270;-62
2023/10/17 12:23:00;;;;;;;10.20;3.20;;;;;;;16.64;35.71;101862.05;107535;1251;97837;-61
2023/10/17 12:25:32;;;;;;;6.40;2.80;;;;;;;16.58;35.79;101865.11;107549;1254;97681;-62
2023/10/17 12:28:02;;;;;;;6.60;3.20;;;;;;;16.57;35.85;101859.53;107605;1251;112185;-62
2023/10/17 12:30:35;;;;;;;5.80;3.10;;;;;;;16.54;36.03;101858.66;107522;1254;110365;-62
2023/10/17 12:33:06;;;;;;;7.40;3.40;;;;;;;16.50;36.06;101858.65;107529;1252;106587;-63
2023/10/17 12:35:34;;;;;;;10.60;3.30;;;;;;;16.52;36.32;101854.16;107592;1255;97825;-61
2023/10/17 12:38:14;;;;;;;15.40;4.80;;;;;;;16.60;36.43;101851.00;107613;1252;97846;-62
2023/10/17 12:40:43;;;;;;;7.20;3.40;;;;;;;16.70;36.43;101849.82;107629;1254;111211;-62
2023/10/17 12:43:11;;;;;;;10.30;3.50;;;;;;;16.76;36.21;101848.21;107507;1251;109474;-62
2023/10/17 12:45:41;;;;;;;9.40;3.40;;;;;;;16.81;36.46;101845.73;107550;1256;107277;-63
2023/10/17 12:48:11;;;;;;;7.50;3.70;;;;;;;16.87;36.60;101844.92;107533;1253;97931;-62
2023/10/17 12:50:43;;;;;;;8.50;3.40;;;;;;;16.86;36.33;101845.52;107551;1255;97927;-62
2023/10/17 12:53:13;;;;;;;10.00;3.20;;;;;;;16.72;36.41;101840.58;107595;1253;111270;-62
2023/10/17 12:55:41;;;;;;;8.20;3.70;;;;;;;16.61;36.53;101838.61;107653;1255;109349;-62
2023/10/17 12:58:18;;;;;;;6.50;3.20;;;;;;;16.60;36.76;101833.95;107507;1254;108060;-63
2023/10/17 13:00:48;;;;;;;10.80;3.60;;;;;;;16.65;36.91;101833.16;107519;1255;97846;-62
2023/10/17 13:03:17;;;;;;;11.80;3.90;;;;;;;16.65;36.92;101830.05;107530;1253;97846;-62
2023/10/17 13:05:46;;;;;;;8.30;3.20;;;;;;;16.70;36.90;101824.89;107564;1253;113419;-61
2023/10/17 13:08:15;;;;;;;8.80;3.60;;;;;;;16.68;36.94;101827.57;107560;1253;109044;-63
2023/10/17 13:10:43;;;;;;;5.90;3.30;;;;;;;16.63;37.09;101829.02;107536;1255;108212;-63
2023/10/17 13:13:12;;;;;;;9.40;4.10;;;;;;;16.60;37.06;101825.27;107570;1255;97838;-62
2023/10/17 13:15:43;;;;;;;7.80;3.20;;;;;;;16.58;37.17;101827.84;107574;1253;97819;-61
2023/10/17 13:18:14;;;;;;;8.60;3.40;;;;;;;16.60;37.17;101825.84;107514;1254;111298;-62
2023/10/17 13:20:48;;;;;;;11.10;4.10;;;;;;;16.57;37.08;101823.54;107551;1254;109561;-63
2023/10/17 13:23:37;;;;;;;10.00;4.10;;;;;;;16.54;37.29;101818.64;107559;1256;108340;-63
2023/10/17 13:26:11;;;;;;;12.60;6.30;;;;;;;16.60;37.36;101818.23;107559;1256;97949;-64
2023/10/17 13:28:40;;;;;;;8.50;4.00;;;;;;;16.72;37.48;101813.94;107502;1254;97861;-63
2023/10/17 13:31:12;;;;;;;8.40;3.90;;;;;;;16.83;37.24;101811.22;107537;1255;111643;-62
2023/10/17 13:33:42;;;;;;;11.10;4.30;;;;;;;17.05;36.98;101812.91;107574;1256;109692;-63
2023/10/17 13:36:11;;;;;;;9.00;3.70;;;;;;;17.23;36.50;101812.20;107557;1255;107808;-64
2023/10/17 13:38:40;;;;;;;11.20;3.70;;;;;;;17.35;36.25;101804.16;107491;1256;97708;-63
2023/10/17 13:41:09;;;;;;;13.20;4.90;;;;;;;17.42;36.35;101802.42;107573;1255;97838;-62
2023/10/17 13:43:38;;;;;;;7.80;4.00;;;;;;;17.40;36.20;101802.89;107542;1253;113569;-61
2023/10/17 13:46:12;;;;;;;8.10;4.40;;;;;;;17.38;36.32;101799.86;107597;1255;107530;-62
2023/10/17 13:48:48;;;;;;;7.50;3.50;;;;;;;17.31;35.72;101798.18;107558;1255;107738;-62
2023/10/17 13:51:19;;;;;;;11.10;3.70;;;;;;;17.07;36.17;101796.98;107505;1253;97910;-62
2023/10/17 13:53:48;;;;;;;6.30;3.20;;;;;;;16.95;36.23;101796.20;107641;1255;97701;-61
2023/10/17 13:56:21;;;;;;;9.60;3.70;;;;;;;16.87;35.76;101796.71;107545;1256;112050;-62
2023/10/17 13:58:50;;;;;;;7.70;2.80;;;;;;;16.72;35.55;101797.16;107593;1255;108821;-62
2023/10/17 14:01:31;;;;;;;7.10;3.60;;;;;;;16.65;35.60;101795.08;107557;1257;107913;-61
2023/10/17 14:04:01;;;;;;;10.10;3.30;;;;;;;16.95;36.08;101793.63;107496;1256;97876;-62
2023/10/17 14:06:34;;;;;;;11.10;3.60;;;;;;;17.49;35.89;101791.27;107591;1254;99093;-62
2023/10/17 14:09:03;;;;;;;7.20;3.60;;;;;;;17.95;34.72;101788.06;107578;1253;111443;-63
2023/10/17 14:11:32;;;;;;;12.80;3.10;;;;;;;18.37;34.60;101787.45;107557;1254;109642;-61
2023/10/17 14:14:00;;;;;;;15.00;3.80;;;;;;;18.85;34.16;101784.27;107532;1256;107722;-63
2023/10/17 14:16:28;;;;;;;7.70;2.90;;;;;;;19.34;33.17;101780.45;107548;1256;97890;-62